createdAt,value
2017-08-30T00:00:14.545Z,20.5
2017-08-30T00:01:21.484Z,20.5
2017-08-30T00:04:59.680Z,20.9
2017-08-30T00:06:12.535Z,20.6
2017-08-30T00:07:21.478Z,20.4
2017-08-30T00:08:32.438Z,20.3
2017-08-30T00:09:40.735Z,20.3
2017-08-30T00:12:19.665Z,20.2
2017-08-30T00:13:26.843Z,20
2017-08-30T00:14:36.414Z,20.2
2017-08-30T00:16:58.768Z,20.1
2017-08-30T00:19:17.049Z,20.1
2017-08-30T00:20:30.038Z,20.2
2017-08-30T00:21:36.667Z,20.2
2017-08-30T00:22:45.646Z,20.2
2017-08-30T00:23:52.644Z,20
2017-08-30T00:25:06.235Z,19.8
2017-08-30T00:26:18.178Z,19.8
2017-08-30T00:27:21.779Z,20
2017-08-30T00:28:27.147Z,20
2017-08-30T00:30:59.838Z,20.2
2017-08-30T00:32:08.076Z,19.9
2017-08-30T00:33:18.973Z,19.9
2017-08-30T00:34:25.113Z,19.8
2017-08-30T00:35:32.497Z,19.5
2017-08-30T00:36:42.216Z,19.3
2017-08-30T00:37:49.824Z,19.4
2017-08-30T00:39:02.342Z,19.4
2017-08-30T00:40:11.226Z,19.4
2017-08-30T00:41:21.963Z,19.8
2017-08-30T00:42:25.693Z,19.9
2017-08-30T00:43:31.246Z,19.8
2017-08-30T00:44:37.005Z,19.9
2017-08-30T00:45:43.163Z,19.8
2017-08-30T00:46:54.430Z,19.8
2017-08-30T00:48:22.268Z,19.9
2017-08-30T00:49:28.059Z,19.7
2017-08-30T00:50:37.748Z,19.5
2017-08-30T00:51:45.422Z,19.6
2017-08-30T00:52:51.090Z,19.8
2017-08-30T00:53:56.951Z,19.8
2017-08-30T00:56:17.905Z,19.9
2017-08-30T00:57:27.639Z,19.8
2017-08-30T00:58:37.646Z,20.1
2017-08-30T00:59:54.249Z,20.2
2017-08-30T01:01:01.849Z,20.2
2017-08-30T01:02:17.031Z,20.2
2017-08-30T01:03:25.755Z,20
2017-08-30T01:05:41.112Z,20.1
2017-08-30T01:06:51.059Z,20
2017-08-30T01:11:47.202Z,20.3
2017-08-30T01:14:04.106Z,20.2
2017-08-30T01:15:08.398Z,20.1
2017-08-30T01:16:24.614Z,19.9
2017-08-30T01:17:32.006Z,19.6
2017-08-30T01:18:50.651Z,19.4
2017-08-30T01:21:28.999Z,19.2
2017-08-30T01:22:35.393Z,19.4
2017-08-30T01:23:45.305Z,19.3
2017-08-30T01:24:53.199Z,19.4
2017-08-30T01:26:00.765Z,19.3
2017-08-30T01:27:07.972Z,19.1
2017-08-30T01:28:18.449Z,19
2017-08-30T01:29:28.314Z,19.2
2017-08-30T01:30:37.914Z,19.2
2017-08-30T01:33:11.740Z,18.9
2017-08-30T01:34:23.517Z,18.7
2017-08-30T01:35:29.566Z,18.8
2017-08-30T01:36:38.693Z,18.9
2017-08-30T01:37:43.801Z,18.7
2017-08-30T01:40:14.133Z,18.9
2017-08-30T01:42:33.446Z,18.9
2017-08-30T01:43:46.822Z,18.8
2017-08-30T01:44:59.763Z,18.7
2017-08-30T01:46:04.745Z,18.6
2017-08-30T01:47:10.882Z,18.6
2017-08-30T01:48:24.184Z,18.6
2017-08-30T01:49:29.187Z,18.6
2017-08-30T01:50:35.613Z,18.9
2017-08-30T01:52:52.188Z,18.7
2017-08-30T01:53:57.785Z,18.7
2017-08-30T01:55:05.521Z,18.6
2017-08-30T01:56:09.028Z,18.8
2017-08-30T01:57:15.790Z,18.3
2017-08-30T01:58:20.319Z,18.4
2017-08-30T01:59:24.248Z,18.4
2017-08-30T02:00:33.235Z,18.3
2017-08-30T02:01:35.872Z,18.5
2017-08-30T02:02:39.448Z,18.6
2017-08-30T02:03:45.427Z,18.4
2017-08-30T02:04:48.785Z,18.4
2017-08-30T02:05:51.940Z,18.4
2017-08-30T02:06:56.194Z,18.5
2017-08-30T02:07:59.257Z,18.6
2017-08-30T02:09:04.296Z,18.6
2017-08-30T02:10:07.687Z,18.3
2017-08-30T02:11:17.087Z,18.1
2017-08-30T02:12:19.674Z,17.9
2017-08-30T02:13:22.388Z,17.8
2017-08-30T02:14:26.122Z,18
2017-08-30T02:15:29.117Z,17.8
2017-08-30T02:16:31.626Z,17.6
2017-08-30T02:17:39.660Z,17.9
2017-08-30T02:18:48.443Z,17.7
2017-08-30T02:19:57.042Z,17.9
2017-08-30T02:21:07.362Z,17.9
2017-08-30T02:22:13.077Z,18
2017-08-30T02:24:40.271Z,18.1
2017-08-30T02:25:45.495Z,18.3
2017-08-30T02:26:55.345Z,18.2
2017-08-30T02:28:03.125Z,18.1
2017-08-30T02:30:17.797Z,18.1
2017-08-30T02:31:21.978Z,18
2017-08-30T02:32:29.499Z,18
2017-08-30T02:33:32.316Z,18.1
2017-08-30T02:34:39.785Z,18.1
2017-08-30T02:35:44.445Z,18.1
2017-08-30T02:36:47.908Z,17.9
2017-08-30T02:37:50.265Z,17.8
2017-08-30T02:38:55.329Z,17.9
2017-08-30T02:40:03.958Z,17.9
2017-08-30T02:41:07.995Z,18.1
2017-08-30T02:42:17.804Z,18.3
2017-08-30T02:43:22.014Z,18.4
2017-08-30T02:44:25.593Z,18.4
2017-08-30T02:45:34.094Z,18.5
2017-08-30T02:46:42.178Z,18.4
2017-08-30T02:47:46.395Z,18.4
2017-08-30T02:48:49.976Z,18.3
2017-08-30T02:49:55.163Z,18.2
2017-08-30T02:50:58.362Z,18
2017-08-30T02:52:02.843Z,17.5
2017-08-30T02:53:13.620Z,17.7
2017-08-30T02:54:16.903Z,18
2017-08-30T02:55:20.529Z,17.9
2017-08-30T02:56:23.876Z,17.9
2017-08-30T02:57:28.724Z,18.1
2017-08-30T02:58:33.543Z,18.3
2017-08-30T02:59:39.161Z,18.3
2017-08-30T03:00:45.353Z,18.2
2017-08-30T03:01:52.052Z,18.1
2017-08-30T03:02:59.956Z,17.8
2017-08-30T03:04:06.116Z,17.9
2017-08-30T03:05:11.342Z,17.8
2017-08-30T03:06:15.396Z,17.7
2017-08-30T03:07:18.148Z,18
2017-08-30T03:08:25.630Z,18
2017-08-30T03:09:28.420Z,18
2017-08-30T03:10:32.765Z,18.1
2017-08-30T03:11:37.105Z,17.8
2017-08-30T03:12:42.653Z,17.9
2017-08-30T03:13:48.780Z,17.6
2017-08-30T03:14:51.008Z,18
2017-08-30T03:15:53.911Z,18
2017-08-30T03:16:58.609Z,17.8
2017-08-30T03:18:01.808Z,17.8
2017-08-30T03:19:06.818Z,17.8
2017-08-30T03:20:11.313Z,17.7
2017-08-30T03:21:16.055Z,17.7
2017-08-30T03:22:19.733Z,17.5
2017-08-30T03:23:25.396Z,17.8
2017-08-30T03:24:27.684Z,17.6
2017-08-30T03:25:34.833Z,17.5
2017-08-30T03:26:46.099Z,17.3
2017-08-30T03:27:51.412Z,17.6
2017-08-30T03:28:56.986Z,17.8
2017-08-30T03:30:03.232Z,17.5
2017-08-30T03:31:06.688Z,17.4
2017-08-30T03:32:08.948Z,17.5
2017-08-30T03:33:13.514Z,17.3
2017-08-30T03:34:18.027Z,17.3
2017-08-30T03:35:21.343Z,17.2
2017-08-30T03:36:25.746Z,17.3
2017-08-30T03:37:31.190Z,17.3
2017-08-30T03:38:36.957Z,17.4
2017-08-30T03:39:43.371Z,17.4
2017-08-30T03:40:49.984Z,17.4
2017-08-30T03:41:53.328Z,17.3
2017-08-30T03:42:56.408Z,17.4
2017-08-30T03:44:09.238Z,17.3
2017-08-30T03:45:18.692Z,17.2
2017-08-30T03:46:27.579Z,17.4
2017-08-30T03:47:37.346Z,17.5
2017-08-30T03:48:41.118Z,17.6
2017-08-30T03:49:46.138Z,17.6
2017-08-30T03:50:52.783Z,17.8
2017-08-30T03:51:58.651Z,17.7
2017-08-30T03:53:06.806Z,17.7
2017-08-30T03:54:12.321Z,17.4
2017-08-30T03:55:16.085Z,17.5
2017-08-30T03:56:20.353Z,17.5
2017-08-30T03:57:23.524Z,17.5
2017-08-30T03:58:28.822Z,17.5
2017-08-30T03:59:32.093Z,17.7
2017-08-30T04:00:35.999Z,17.7
2017-08-30T04:01:49.050Z,17.7
2017-08-30T04:02:53.716Z,17.7
2017-08-30T04:03:56.682Z,17.7
2017-08-30T04:05:04.920Z,17.8
2017-08-30T04:06:10.725Z,17.9
2017-08-30T04:07:20.122Z,17.8
2017-08-30T04:08:26.832Z,17.7
2017-08-30T04:09:29.463Z,17.6
2017-08-30T04:10:32.331Z,17.5
2017-08-30T04:11:35.212Z,17.5
2017-08-30T04:12:42.970Z,17.4
2017-08-30T04:13:47.359Z,17.4
2017-08-30T04:14:58.269Z,17.5
2017-08-30T04:16:02.032Z,17.5
2017-08-30T04:17:11.083Z,17.4
2017-08-30T04:18:14.999Z,17.4
2017-08-30T04:19:20.013Z,17.5
2017-08-30T04:20:25.991Z,17.6
2017-08-30T04:21:32.168Z,17.5
2017-08-30T04:22:39.647Z,17.4
2017-08-30T04:23:43.651Z,17.4
2017-08-30T04:24:50.610Z,17.2
2017-08-30T04:26:01.461Z,17.2
2017-08-30T04:27:06.899Z,17.1
2017-08-30T04:28:14.846Z,17
2017-08-30T04:29:19.943Z,17.1
2017-08-30T04:30:33.300Z,16.9
2017-08-30T04:31:38.452Z,16.7
2017-08-30T04:32:45.315Z,16.8
2017-08-30T04:33:51.584Z,16.9
2017-08-30T04:34:56.984Z,16.9
2017-08-30T04:36:00.497Z,17.1
2017-08-30T04:37:08.564Z,17.1
2017-08-30T04:38:19.700Z,17.2
2017-08-30T04:39:22.889Z,17.2
2017-08-30T04:40:32.538Z,17.3
2017-08-30T04:42:48.625Z,17.2
2017-08-30T04:43:50.919Z,17.4
2017-08-30T04:46:07.392Z,17.3
2017-08-30T04:47:13.823Z,17.3
2017-08-30T04:48:21.125Z,17.5
2017-08-30T04:49:24.821Z,17.5
2017-08-30T04:50:29.612Z,17.6
2017-08-30T04:51:43.846Z,17.6
2017-08-30T04:52:56.155Z,17.6
2017-08-30T04:53:59.770Z,17.6
2017-08-30T04:55:05.342Z,17.6
2017-08-30T04:56:17.323Z,17.7
2017-08-30T04:57:20.741Z,17.5
2017-08-30T04:58:24.930Z,17.4
2017-08-30T04:59:27.846Z,17.4
2017-08-30T05:01:55.169Z,17.6
2017-08-30T05:03:02.334Z,17.6
2017-08-30T05:05:23.225Z,17.6
2017-08-30T05:06:28.861Z,17.8
2017-08-30T05:07:35.882Z,18
2017-08-30T05:08:44.195Z,18
2017-08-30T05:09:51.968Z,17.9
2017-08-30T05:10:56.572Z,18.1
2017-08-30T05:12:05.852Z,18.2
2017-08-30T05:13:13.635Z,18.1
2017-08-30T05:14:18.065Z,18.2
2017-08-30T05:15:20.991Z,18.4
2017-08-30T05:16:23.501Z,18.5
2017-08-30T05:17:28.679Z,18.4
2017-08-30T05:18:35.794Z,18.6
2017-08-30T05:19:46.779Z,18.7
2017-08-30T05:20:51.337Z,18.7
2017-08-30T05:21:54.930Z,18.7
2017-08-30T05:22:59.010Z,18.7
2017-08-30T05:24:03.158Z,18.7
2017-08-30T05:25:05.651Z,18.8
2017-08-30T05:26:07.923Z,18.8
2017-08-30T05:27:11.832Z,18.9
2017-08-30T05:28:17.542Z,18.8
2017-08-30T05:29:19.842Z,18.8
2017-08-30T05:30:22.490Z,18.9
2017-08-30T05:31:24.732Z,18.9
2017-08-30T05:32:27.065Z,19.2
2017-08-30T05:33:29.308Z,19.2
2017-08-30T05:34:31.553Z,19.1
2017-08-30T05:35:34.973Z,19.4
2017-08-30T05:36:41.101Z,19.5
2017-08-30T05:37:43.616Z,19.5
2017-08-30T05:38:45.869Z,19.5
2017-08-30T05:39:48.091Z,19.7
2017-08-30T05:40:50.635Z,19.7
2017-08-30T05:41:52.879Z,19.8
2017-08-30T05:42:55.160Z,19.9
2017-08-30T05:43:57.957Z,19.8
2017-08-30T05:45:01.215Z,20
2017-08-30T05:46:04.885Z,19.9
2017-08-30T05:47:07.884Z,19.8
2017-08-30T05:48:10.817Z,19.9
2017-08-30T05:49:13.764Z,20.2
2017-08-30T05:50:15.971Z,20.2
2017-08-30T05:51:18.580Z,20
2017-08-30T05:52:24.167Z,19.7
2017-08-30T05:53:26.482Z,19.8
2017-08-30T05:54:29.199Z,19.9
2017-08-30T05:55:31.451Z,20
2017-08-30T05:56:35.130Z,20
2017-08-30T05:57:37.402Z,19.9
2017-08-30T05:58:40.012Z,19.9
2017-08-30T05:59:43.065Z,20
2017-08-30T06:00:46.080Z,20
2017-08-30T06:01:48.621Z,20
2017-08-30T06:02:51.592Z,20.3
2017-08-30T06:03:54.365Z,20.3
2017-08-30T06:04:56.714Z,20.1
2017-08-30T06:06:00.923Z,20.1
2017-08-30T06:07:03.717Z,20.2
2017-08-30T06:08:06.006Z,20.2
2017-08-30T06:09:08.920Z,20.4
2017-08-30T06:10:11.143Z,20.4
2017-08-30T06:11:14.492Z,20.4
2017-08-30T06:12:17.703Z,20.7
2017-08-30T06:13:20.026Z,20.8
2017-08-30T06:14:23.254Z,20.8
2017-08-30T06:15:26.214Z,21.1
2017-08-30T06:16:29.700Z,21.2
2017-08-30T06:17:32.511Z,21.2
2017-08-30T06:18:35.534Z,21.5
2017-08-30T06:19:37.736Z,21.6
2017-08-30T06:20:42.076Z,21.7
2017-08-30T06:21:44.956Z,21.9
2017-08-30T06:22:48.532Z,22.1
2017-08-30T06:23:51.823Z,22
2017-08-30T06:24:54.537Z,22.1
2017-08-30T06:25:59.256Z,22.3
2017-08-30T06:27:02.081Z,22.2
2017-08-30T06:28:05.167Z,22.3
2017-08-30T06:29:07.403Z,22.2
2017-08-30T06:30:09.696Z,22.7
2017-08-30T06:31:11.926Z,22.8
2017-08-30T06:32:14.292Z,22.9
2017-08-30T06:33:17.454Z,23
2017-08-30T06:34:20.351Z,23
2017-08-30T06:35:23.302Z,23.3
2017-08-30T06:36:25.596Z,23.4
2017-08-30T06:37:27.880Z,23.3
2017-08-30T06:38:30.607Z,23.3
2017-08-30T06:39:32.814Z,22.9
2017-08-30T06:40:35.726Z,22.9
2017-08-30T06:41:38.999Z,23.1
2017-08-30T06:42:42.614Z,22.9
2017-08-30T06:43:45.856Z,23
2017-08-30T06:44:48.058Z,23.2
2017-08-30T06:45:50.538Z,23.4
2017-08-30T06:46:53.909Z,23.4
2017-08-30T06:47:56.703Z,23.2
2017-08-30T06:48:59.262Z,23.2
2017-08-30T06:50:02.123Z,23.7
2017-08-30T06:51:11.083Z,24.3
2017-08-30T06:52:14.946Z,24.1
2017-08-30T06:53:19.561Z,23.3
2017-08-30T06:54:24.077Z,23
2017-08-30T06:55:26.936Z,23
2017-08-30T06:56:31.886Z,23.1
2017-08-30T06:57:36.770Z,23.3
2017-08-30T06:58:39.984Z,23.3
2017-08-30T06:59:43.057Z,23.5
2017-08-30T07:00:47.462Z,24.5
2017-08-30T07:01:51.346Z,24.9
2017-08-30T07:02:55.717Z,24.3
2017-08-30T07:03:57.982Z,24.7
2017-08-30T07:05:02.280Z,25.3
2017-08-30T07:06:05.320Z,24.8
2017-08-30T07:07:08.365Z,24.5
2017-08-30T07:09:19.967Z,24.3
2017-08-30T07:10:25.603Z,23.9
2017-08-30T07:11:27.900Z,23.8
2017-08-30T07:12:30.423Z,23.6
2017-08-30T07:13:33.368Z,23.8
2017-08-30T07:14:40.514Z,23.9
2017-08-30T07:15:45.770Z,23.8
2017-08-30T07:16:53.673Z,24
2017-08-30T07:17:57.617Z,24.8
2017-08-30T07:19:01.597Z,24.7
2017-08-30T07:20:04.559Z,24.8
2017-08-30T07:21:08.165Z,24.7
2017-08-30T07:22:13.063Z,25
2017-08-30T07:23:18.368Z,25.2
2017-08-30T07:24:26.120Z,24.8
2017-08-30T07:25:29.372Z,24.7
2017-08-30T07:26:33.889Z,24.6
2017-08-30T07:27:40.020Z,24.9
2017-08-30T07:28:48.737Z,25
2017-08-30T07:29:54.345Z,25.6
2017-08-30T07:30:57.247Z,26.2
2017-08-30T07:33:12.549Z,25.5
2017-08-30T07:34:28.059Z,25.6
2017-08-30T07:35:31.201Z,25.9
2017-08-30T07:36:33.519Z,26.2
2017-08-30T07:37:39.489Z,26
2017-08-30T07:38:44.212Z,26
2017-08-30T07:39:47.214Z,26.3
2017-08-30T07:40:55.029Z,26.1
2017-08-30T07:41:59.020Z,26.4
2017-08-30T07:43:05.193Z,26.5
2017-08-30T07:44:11.656Z,26.5
2017-08-30T07:45:14.552Z,26.5
2017-08-30T07:46:18.351Z,26.7
2017-08-30T07:47:28.480Z,26.8
2017-08-30T07:48:32.824Z,26.8
2017-08-30T07:49:36.095Z,27.2
2017-08-30T07:50:40.001Z,27
2017-08-30T07:51:43.962Z,26.9
2017-08-30T07:52:47.706Z,27.3
2017-08-30T07:53:53.629Z,27
2017-08-30T08:01:04.337Z,27.7
2017-08-30T08:02:09.857Z,27.4
2017-08-30T08:03:15.406Z,27.6
2017-08-30T08:04:21.238Z,27.9
2017-08-30T08:05:29.422Z,27.8
2017-08-30T08:06:38.058Z,27.5
2017-08-30T08:07:40.321Z,27.7
2017-08-30T08:08:44.409Z,28.4
2017-08-30T08:33:01.288Z,28.6
2017-08-30T08:34:03.363Z,28.7
2017-08-30T08:35:05.459Z,28.4
2017-08-30T08:37:24.818Z,28.2
2017-08-30T08:38:27.138Z,28.4
2017-08-30T08:39:29.202Z,28.5
2017-08-30T08:40:31.266Z,28.5
2017-08-30T08:41:33.290Z,28.3
2017-08-30T08:42:35.413Z,28.4
2017-08-30T08:43:37.801Z,28.2
2017-08-30T08:44:39.942Z,28.3
2017-08-30T08:45:42.073Z,28.3
2017-08-30T08:46:44.210Z,28.4
2017-08-30T08:47:46.324Z,28.4
2017-08-30T08:48:48.776Z,28.6
2017-08-30T08:49:50.963Z,28.7
2017-08-30T08:50:53.177Z,29
2017-08-30T08:51:55.531Z,29
2017-08-30T08:52:57.770Z,28.6
2017-08-30T08:54:00.136Z,29.1
2017-08-30T08:55:02.387Z,29.4
2017-08-30T08:56:04.683Z,29.5
2017-08-30T08:57:06.961Z,29.4
2017-08-30T09:12:50.288Z,29.4
2017-08-30T09:13:52.403Z,29.7
2017-08-30T09:14:54.473Z,29.2
2017-08-30T09:15:56.592Z,29.6
2017-08-30T09:16:59.178Z,29.5
2017-08-30T09:18:01.347Z,29.7
2017-08-30T09:19:03.439Z,29.9
2017-08-30T09:20:05.537Z,30.1
2017-08-30T09:21:07.648Z,29.3
2017-08-30T09:22:09.971Z,29.6
2017-08-30T09:23:12.157Z,29.8
2017-08-30T09:24:14.220Z,28.9
2017-08-30T09:25:16.274Z,28.6
2017-08-30T09:26:18.418Z,29.3
2017-08-30T09:27:20.872Z,29.4
2017-08-30T09:28:22.981Z,29.6
2017-08-30T09:29:25.164Z,29.5
2017-08-30T09:30:27.289Z,28.9
2017-08-30T09:31:29.444Z,29.1
2017-08-30T09:32:31.916Z,28.8
2017-08-30T09:33:34.024Z,28.5
2017-08-30T09:34:36.451Z,28.5
2017-08-30T09:36:51.671Z,29.2
2017-08-30T09:37:54.044Z,29.2
2017-08-30T09:38:56.111Z,29.5
2017-08-30T09:39:58.248Z,29.9
2017-08-30T09:41:01.196Z,30.4
2017-08-30T09:42:03.313Z,29.5
2017-08-30T09:43:05.664Z,29.9
2017-08-30T09:44:07.779Z,29.9
2017-08-30T09:45:09.864Z,30.2
2017-08-30T09:46:11.980Z,30.2
2017-08-30T09:47:14.107Z,29.9
2017-08-30T09:48:16.455Z,30.1
2017-08-30T09:49:18.545Z,30.3
2017-08-30T09:50:20.627Z,30.6
2017-08-30T09:51:22.739Z,29.8
2017-08-30T09:52:24.828Z,29.4
2017-08-30T09:53:27.220Z,29.7
2017-08-30T09:54:29.359Z,29.5
2017-08-30T09:55:31.446Z,29.3
2017-08-30T09:56:33.696Z,29.4
2017-08-30T09:57:35.868Z,30.2
2017-08-30T09:58:38.261Z,30.6
2017-08-30T09:59:40.377Z,30.7
2017-08-30T10:00:42.405Z,29.8
2017-08-30T10:01:44.510Z,29.8
2017-08-30T10:02:46.646Z,30.6
2017-08-30T10:03:49.014Z,30.8
2017-08-30T10:32:56.494Z,29.3
2017-08-30T10:33:58.638Z,29.4
2017-08-30T10:35:00.756Z,29.2
2017-08-30T10:36:02.973Z,29.2
2017-08-30T10:37:05.006Z,29.2
2017-08-30T10:38:07.447Z,28.7
2017-08-30T10:39:09.558Z,28.8
2017-08-30T10:40:11.699Z,28.8
2017-08-30T10:41:13.868Z,28.7
2017-08-30T10:42:16.031Z,28.8
2017-08-30T10:43:18.485Z,28.7
2017-08-30T10:44:20.626Z,28.8
2017-08-30T10:45:22.747Z,28.6
2017-08-30T10:46:24.888Z,28.6
2017-08-30T10:47:27.000Z,28.7
2017-08-30T10:48:30.808Z,28.9
2017-08-30T10:49:32.861Z,29
2017-08-30T10:50:34.960Z,29
2017-08-30T10:51:37.044Z,29.3
2017-08-30T10:52:39.239Z,29.3
2017-08-30T10:53:41.796Z,29.4
2017-08-30T10:54:43.906Z,29.4
2017-08-30T10:55:46.117Z,29.3
2017-08-30T10:56:48.256Z,29.5
2017-08-30T10:57:50.408Z,29.3
2017-08-30T10:58:52.837Z,29.3
2017-08-30T10:59:54.964Z,28.8
2017-08-30T11:00:57.014Z,28.9
2017-08-30T11:08:05.178Z,29.2
2017-08-30T11:09:08.008Z,29.1
2017-08-30T11:10:10.106Z,29.2
2017-08-30T11:11:14.077Z,29.1
2017-08-30T11:12:16.180Z,29.2
2017-08-30T11:13:18.561Z,29.2
2017-08-30T11:14:20.660Z,29
2017-08-30T11:15:22.774Z,29.3
2017-08-30T11:16:24.819Z,29.6
2017-08-30T11:17:26.943Z,29.5
2017-08-30T11:18:29.330Z,29.2
2017-08-30T11:19:31.516Z,29.1
2017-08-30T11:20:33.615Z,28.6
2017-08-30T11:21:35.727Z,28.7
2017-08-30T11:22:37.815Z,28.7
2017-08-30T11:23:40.259Z,29
2017-08-30T11:24:42.470Z,29.3
2017-08-30T11:25:44.632Z,29.1
2017-08-30T11:26:46.777Z,29.3
2017-08-30T11:27:48.896Z,29.5
2017-08-30T11:28:51.366Z,29.6
2017-08-30T11:29:53.591Z,29.6
2017-08-30T11:30:55.758Z,29.2
2017-08-30T11:31:57.869Z,29.3
2017-08-30T11:32:59.954Z,29.3
2017-08-30T11:34:04.374Z,29.6
2017-08-30T11:35:06.475Z,29.8
2017-08-30T11:36:08.522Z,30.1
2017-08-30T11:37:10.625Z,30.3
2017-08-30T11:38:12.779Z,30.2
2017-08-30T11:39:15.230Z,30
2017-08-30T11:40:17.329Z,30.2
2017-08-30T11:41:19.454Z,29.9
2017-08-30T11:42:21.581Z,30.1
2017-08-30T11:43:23.718Z,30.3
2017-08-30T11:44:26.080Z,30
2017-08-30T11:45:28.280Z,30
2017-08-30T11:46:30.379Z,29.7
2017-08-30T11:47:32.470Z,29.5
2017-08-30T11:48:34.699Z,29.5
2017-08-30T11:49:37.108Z,29.5
2017-08-30T11:50:39.233Z,29.6
2017-08-30T11:51:41.371Z,30.2
2017-08-30T11:52:43.488Z,30.1
2017-08-30T11:53:45.655Z,30.3
2017-08-30T11:54:48.073Z,30.6
2017-08-30T11:55:50.152Z,30.4
2017-08-30T11:56:52.243Z,30.1
2017-08-30T11:57:54.352Z,29.7
2017-08-30T11:58:56.487Z,29.4
2017-08-30T11:59:58.863Z,29.5
2017-08-30T12:01:01.002Z,29.8
2017-08-30T12:02:03.835Z,30
2017-08-30T12:03:05.978Z,30.2
2017-08-30T12:04:08.147Z,30
2017-08-30T12:05:10.621Z,29.6
2017-08-30T12:06:12.780Z,29.8
2017-08-30T12:07:14.883Z,29.6
2017-08-30T12:08:16.966Z,29.6
2017-08-30T12:09:19.005Z,29.8
2017-08-30T12:10:21.996Z,29.6
2017-08-30T12:11:24.124Z,29.5
2017-08-30T12:12:26.266Z,29.7
2017-08-30T12:13:31.753Z,29.4
2017-08-30T12:14:33.907Z,30.3
2017-08-30T12:15:36.376Z,30.3
2017-08-30T12:16:38.465Z,30
2017-08-30T12:17:40.532Z,30.3
2017-08-30T12:18:42.657Z,30.4
2017-08-30T12:19:44.786Z,30.1
2017-08-30T12:20:47.185Z,29.6
2017-08-30T12:21:49.349Z,29.8
2017-08-30T12:22:51.453Z,30.5
2017-08-30T12:23:53.654Z,30.4
2017-08-30T12:24:55.880Z,30.8
2017-08-30T12:25:58.402Z,31.3
2017-08-30T12:27:00.528Z,31.4
2017-08-30T12:28:02.688Z,31.3
2017-08-30T12:29:04.765Z,31.2
2017-08-30T12:30:06.903Z,31.1
2017-08-30T12:31:09.271Z,30.5
2017-08-30T12:32:11.411Z,30.2
2017-08-30T12:33:13.544Z,30
2017-08-30T12:34:15.682Z,29.9
2017-08-30T12:35:17.818Z,30.1
2017-08-30T12:36:20.239Z,30.5
2017-08-30T12:37:22.363Z,30.7
2017-08-30T12:38:24.880Z,30.5
2017-08-30T12:39:28.865Z,30.2
2017-08-30T12:40:30.986Z,30.3
2017-08-30T12:41:33.514Z,30.3
2017-08-30T12:42:35.760Z,30.7
2017-08-30T12:43:38.032Z,30.3
2017-08-30T12:44:40.117Z,30.7
2017-08-30T12:45:42.200Z,30.6
2017-08-30T12:46:44.697Z,30.8
2017-08-30T12:47:46.815Z,30.4
2017-08-30T12:48:48.962Z,30.2
2017-08-30T12:49:51.079Z,30.4
2017-08-30T12:50:53.411Z,30.9
2017-08-30T12:51:55.810Z,30.7
2017-08-30T12:52:57.994Z,30.1
2017-08-30T12:54:00.214Z,30.5
2017-08-30T12:55:02.324Z,31.2
2017-08-30T12:56:04.491Z,31
2017-08-30T12:57:07.088Z,30.9
2017-08-30T12:58:09.204Z,30.6
2017-08-30T12:59:11.235Z,30.7
2017-08-30T13:00:13.398Z,30.1
2017-08-30T13:01:15.498Z,30.4
2017-08-30T13:02:17.873Z,30.3
2017-08-30T13:03:19.977Z,29.9
2017-08-30T13:04:22.089Z,30
2017-08-30T13:05:24.305Z,30
2017-08-30T13:06:26.429Z,30
2017-08-30T13:07:28.894Z,30
2017-08-30T13:08:31.001Z,29.8
2017-08-30T13:09:33.166Z,29.9
2017-08-30T13:10:35.214Z,30.1
2017-08-30T13:11:37.357Z,29.8
2017-08-30T13:12:39.733Z,30
2017-08-30T13:13:41.819Z,30.3
2017-08-30T13:14:44.033Z,30.1
2017-08-30T13:15:46.194Z,30.1
2017-08-30T13:16:48.401Z,29.9
2017-08-30T13:17:50.902Z,29.8
2017-08-30T13:18:53.075Z,29.6
2017-08-30T13:19:56.904Z,29.8
2017-08-30T13:20:59.178Z,29.9
2017-08-30T13:22:01.342Z,30
2017-08-30T13:23:04.014Z,29.8
2017-08-30T13:24:06.147Z,29.7
2017-08-30T13:25:08.367Z,30
2017-08-30T13:26:10.562Z,30
2017-08-30T13:27:12.649Z,30
2017-08-30T13:28:15.178Z,29.7
2017-08-30T13:29:17.244Z,29.7
2017-08-30T13:30:19.408Z,29.7
2017-08-30T13:31:22.621Z,29.6
2017-08-30T13:32:24.782Z,29.5
2017-08-30T13:33:27.234Z,29.7
2017-08-30T13:34:29.409Z,29.8
2017-08-30T13:35:31.903Z,30
2017-08-30T13:36:34.279Z,29.7
2017-08-30T13:37:36.472Z,29.8
2017-08-30T13:38:39.223Z,29.9
2017-08-30T13:39:41.351Z,29.7
2017-08-30T13:40:43.449Z,29.6
2017-08-30T13:41:45.580Z,29.5
2017-08-30T13:42:47.671Z,29.4
2017-08-30T13:43:52.012Z,29.6
2017-08-30T13:44:54.194Z,29.4
2017-08-30T13:45:56.761Z,29.4
2017-08-30T13:46:58.866Z,29.4
2017-08-30T13:48:00.985Z,29.3
2017-08-30T13:49:04.726Z,29.5
2017-08-30T13:50:06.846Z,29.7
2017-08-30T13:51:09.033Z,29.5
2017-08-30T13:52:11.196Z,29.6
2017-08-30T13:53:13.424Z,29.6
2017-08-30T13:54:15.875Z,29.6
2017-08-30T13:55:18.060Z,29.6
2017-08-30T13:56:20.130Z,29.6
2017-08-30T13:57:22.211Z,29.6
2017-08-30T13:58:24.328Z,29.5
2017-08-30T13:59:26.701Z,29.7
2017-08-30T14:00:28.853Z,29.9
2017-08-30T14:01:31.108Z,29.7
2017-08-30T14:02:33.273Z,29.7
2017-08-30T14:03:35.436Z,29.8
2017-08-30T14:04:37.868Z,29.7
2017-08-30T14:05:40.182Z,30.1
2017-08-30T14:06:42.357Z,29.9
2017-08-30T14:07:44.534Z,29.8
2017-08-30T14:08:46.697Z,29.8
2017-08-30T14:09:49.224Z,29.7
2017-08-30T14:10:51.420Z,29.5
2017-08-30T14:11:53.742Z,29.7
2017-08-30T14:12:57.839Z,29.6
2017-08-30T14:13:59.997Z,29.6
2017-08-30T14:15:02.436Z,29.7
2017-08-30T14:16:04.621Z,29.6
2017-08-30T14:17:06.763Z,29.6
2017-08-30T14:18:08.884Z,29.6
2017-08-30T14:19:11.133Z,29.5
2017-08-30T14:20:13.489Z,29.6
2017-08-30T14:21:15.650Z,29.7
2017-08-30T14:22:17.853Z,29.6
2017-08-30T14:23:19.987Z,29.5
2017-08-30T14:24:22.067Z,29.6
2017-08-30T14:25:24.647Z,29.7
2017-08-30T14:26:26.919Z,29.8
2017-08-30T14:27:29.105Z,29.7
2017-08-30T14:28:31.204Z,29.5
2017-08-30T14:29:33.334Z,29.5
2017-08-30T14:30:35.927Z,29.7
2017-08-30T14:31:38.053Z,29.6
2017-08-30T14:32:40.142Z,29.4
2017-08-30T14:33:42.400Z,29.5
2017-08-30T14:34:44.507Z,29.6
2017-08-30T14:35:46.946Z,29.8
2017-08-30T14:36:49.093Z,29.7
2017-08-30T14:37:51.212Z,29.8
2017-08-30T14:38:53.435Z,29.8
2017-08-30T14:39:55.822Z,29.7
2017-08-30T14:40:58.291Z,29.7
2017-08-30T14:42:00.809Z,29.7
2017-08-30T14:43:02.869Z,29.7
2017-08-30T14:44:05.155Z,29.6
2017-08-30T14:45:07.226Z,29.5
2017-08-30T14:46:10.058Z,29.6
2017-08-30T14:47:12.128Z,29.4
2017-08-30T14:48:14.272Z,29.3
2017-08-30T14:49:16.388Z,29.4
2017-08-30T14:50:20.088Z,29.3
2017-08-30T14:51:22.597Z,29.2
2017-08-30T14:52:26.579Z,29.2
2017-08-30T14:53:28.620Z,29.2
2017-08-30T14:54:30.713Z,29.3
2017-08-30T14:55:32.869Z,29.4
2017-08-30T14:56:35.460Z,29.2
2017-08-30T14:57:37.623Z,29.2
2017-08-30T14:58:39.738Z,29.2
2017-08-30T14:59:41.858Z,29.3
2017-08-30T15:00:43.966Z,29.1
2017-08-30T15:01:46.328Z,29
2017-08-30T15:02:48.525Z,29.1
2017-08-30T15:03:50.734Z,29.2
2017-08-30T15:04:52.873Z,29.2
2017-08-30T15:05:54.987Z,29.3
2017-08-30T15:06:57.414Z,29.2
2017-08-30T15:07:59.595Z,29
2017-08-30T15:09:01.866Z,29
2017-08-30T15:10:03.973Z,29
2017-08-30T15:11:06.116Z,29
2017-08-30T15:12:08.577Z,29
2017-08-30T15:13:10.673Z,29
2017-08-30T15:14:12.763Z,29
2017-08-30T15:15:14.902Z,29
2017-08-30T15:16:17.012Z,28.9
2017-08-30T15:17:19.450Z,29
2017-08-30T15:18:22.342Z,29.1
2017-08-30T15:19:24.403Z,29.1
2017-08-30T15:20:26.617Z,29.1
2017-08-30T15:21:28.707Z,28.9
2017-08-30T15:22:31.176Z,28.9
2017-08-30T15:23:33.328Z,28.8
2017-08-30T15:24:35.418Z,28.5
2017-08-30T15:25:37.580Z,28.5
2017-08-30T15:26:39.729Z,28.7
2017-08-30T15:27:42.253Z,28.5
2017-08-30T15:28:44.338Z,28.4
2017-08-30T15:29:46.409Z,28.4
2017-08-30T15:30:48.629Z,28.4
2017-08-30T15:31:50.869Z,28.5
2017-08-30T15:32:53.346Z,28.6
2017-08-30T15:33:55.529Z,28.5
2017-08-30T15:34:57.658Z,28.4
2017-08-30T15:35:59.715Z,28.4
2017-08-30T15:37:01.945Z,28.3
2017-08-30T15:38:04.457Z,28.3
2017-08-30T15:39:06.520Z,28.4
2017-08-30T15:40:08.685Z,28.3
2017-08-30T15:41:10.783Z,28.3
2017-08-30T15:42:12.950Z,28.3
2017-08-30T15:43:15.355Z,28.2
2017-08-30T15:44:18.648Z,28.2
2017-08-30T15:45:20.929Z,28.1
2017-08-30T15:46:23.072Z,28
2017-08-30T15:47:25.206Z,28.1
2017-08-30T15:48:27.656Z,28.2
2017-08-30T15:49:29.777Z,28.2
2017-08-30T15:50:31.903Z,28.1
2017-08-30T15:51:33.960Z,28.1
2017-08-30T15:52:36.059Z,28.2
2017-08-30T15:53:38.633Z,28.1
2017-08-30T15:54:41.270Z,28.2
2017-08-30T15:55:43.513Z,28.1
2017-08-30T15:56:48.453Z,28.1
2017-08-30T15:57:50.582Z,28.2
2017-08-30T15:58:53.119Z,28.1
2017-08-30T15:59:55.255Z,28.1
2017-08-30T16:00:57.318Z,28.1
2017-08-30T16:01:59.469Z,28.1
2017-08-30T16:03:01.568Z,28.1
2017-08-30T16:04:04.217Z,28
2017-08-30T16:05:06.439Z,27.9
2017-08-30T16:06:08.563Z,27.9
2017-08-30T16:07:12.434Z,27.9
2017-08-30T16:08:14.558Z,27.9
2017-08-30T16:09:16.972Z,27.9